sensor_id;sensor_type;location;lat;lon;timestamp;temperature;humidity
26655;DHT22;14278;50.784;4.630;2023-05-28T00:02:15;15.00;99.90
26655;DHT22;14278;50.784;4.630;2023-05-28T00:04:41;15.00;99.90
26655;DHT22;14278;50.784;4.630;2023-05-28T00:07:07;15.00;99.90
26655;DHT22;14278;50.784;4.630;2023-05-28T00:09:36;14.70;99.90
26655;DHT22;14278;50.784;4.630;2023-05-28T00:12:03;14.60;99.90
26655;DHT22;14278;50.784;4.630;2023-05-28T00:14:29;14.50;99.90
26655;DHT22;14278;50.784;4.630;2023-05-28T00:16:55;14.50;99.90
26655;DHT22;14278;50.784;4.630;2023-05-28T00:19:21;14.50;99.90
26655;DHT22;14278;50.784;4.630;2023-05-28T00:21:47;14.40;99.90
26655;DHT22;14278;50.784;4.630;2023-05-28T00:24:14;14.00;99.90
26655;DHT22;14278;50.784;4.630;2023-05-28T00:26:39;13.90;99.90
26655;DHT22;14278;50.784;4.630;2023-05-28T00:29:05;14.00;99.90
26655;DHT22;14278;50.784;4.630;2023-05-28T00:31:31;14.20;99.90
26655;DHT22;14278;50.784;4.630;2023-05-28T00:33:57;14.20;99.90
26655;DHT22;14278;50.784;4.630;2023-05-28T00:36:23;14.10;99.90
26655;DHT22;14278;50.784;4.630;2023-05-28T00:38:49;14.20;99.90
26655;DHT22;14278;50.784;4.630;2023-05-28T00:41:22;14.30;99.90
26655;DHT22;14278;50.784;4.630;2023-05-28T00:43:49;14.30;99.90
26655;DHT22;14278;50.784;4.630;2023-05-28T00:46:18;14.20;99.90
26655;DHT22;14278;50.784;4.630;2023-05-28T00:48:45;14.30;99.90
26655;DHT22;14278;50.784;4.630;2023-05-28T00:51:12;14.10;99.90
26655;DHT22;14278;50.784;4.630;2023-05-28T00:53:39;13.90;99.90
26655;DHT22;14278;50.784;4.630;2023-05-28T00:56:07;13.50;99.90
26655;DHT22;14278;50.784;4.630;2023-05-28T00:58:34;13.60;99.90
26655;DHT22;14278;50.784;4.630;2023-05-28T01:01:01;13.70;99.90
26655;DHT22;14278;50.784;4.630;2023-05-28T01:03:29;13.80;99.90
26655;DHT22;14278;50.784;4.630;2023-05-28T01:05:55;13.70;99.90
26655;DHT22;14278;50.784;4.630;2023-05-28T01:08:20;13.70;99.90
26655;DHT22;14278;50.784;4.630;2023-05-28T01:10:46;13.80;99.90
26655;DHT22;14278;50.784;4.630;2023-05-28T01:13:13;13.90;99.90
26655;DHT22;14278;50.784;4.630;2023-05-28T01:15:38;13.90;99.90
26655;DHT22;14278;50.784;4.630;2023-05-28T01:18:06;13.70;99.90
26655;DHT22;14278;50.784;4.630;2023-05-28T01:20:32;13.50;99.90
26655;DHT22;14278;50.784;4.630;2023-05-28T01:23:07;13.40;99.90
26655;DHT22;14278;50.784;4.630;2023-05-28T01:25:36;13.40;99.90
26655;DHT22;14278;50.784;4.630;2023-05-28T01:28:11;13.20;99.90
26655;DHT22;14278;50.784;4.630;2023-05-28T01:34:00;13.60;99.90
26655;DHT22;14278;50.784;4.630;2023-05-28T01:36:32;13.70;99.90
26655;DHT22;14278;50.784;4.630;2023-05-28T01:39:01;13.60;99.90
26655;DHT22;14278;50.784;4.630;2023-05-28T01:41:28;13.70;99.90
26655;DHT22;14278;50.784;4.630;2023-05-28T01:43:54;13.70;99.90
26655;DHT22;14278;50.784;4.630;2023-05-28T01:46:21;13.60;99.90
26655;DHT22;14278;50.784;4.630;2023-05-28T01:48:47;13.70;99.90
26655;DHT22;14278;50.784;4.630;2023-05-28T01:51:21;13.90;99.90
26655;DHT22;14278;50.784;4.630;2023-05-28T01:53:47;13.80;99.90
26655;DHT22;14278;50.784;4.630;2023-05-28T01:56:12;13.60;99.90
26655;DHT22;14278;50.784;4.630;2023-05-28T01:58:38;13.70;99.90
26655;DHT22;14278;50.784;4.630;2023-05-28T02:03:53;13.80;99.90
26655;DHT22;14278;50.784;4.630;2023-05-28T02:06:21;13.90;99.90
26655;DHT22;14278;50.784;4.630;2023-05-28T02:08:46;13.70;99.90
26655;DHT22;14278;50.784;4.630;2023-05-28T02:11:12;13.20;99.90
26655;DHT22;14278;50.784;4.630;2023-05-28T02:13:39;12.90;99.90
26655;DHT22;14278;50.784;4.630;2023-05-28T02:16:19;12.90;99.90
26655;DHT22;14278;50.784;4.630;2023-05-28T02:18:50;13.00;99.90
26655;DHT22;14278;50.784;4.630;2023-05-28T02:21:17;13.10;99.90
26655;DHT22;14278;50.784;4.630;2023-05-28T02:23:45;13.30;99.90
26655;DHT22;14278;50.784;4.630;2023-05-28T02:26:11;13.40;99.90
26655;DHT22;14278;50.784;4.630;2023-05-28T02:28:37;13.30;99.90
26655;DHT22;14278;50.784;4.630;2023-05-28T02:31:03;13.10;99.90
26655;DHT22;14278;50.784;4.630;2023-05-28T02:33:29;13.10;99.90
26655;DHT22;14278;50.784;4.630;2023-05-28T02:35:55;13.30;99.90
26655;DHT22;14278;50.784;4.630;2023-05-28T02:38:21;13.30;99.90
26655;DHT22;14278;50.784;4.630;2023-05-28T02:40:47;13.50;99.90
26655;DHT22;14278;50.784;4.630;2023-05-28T02:43:13;13.40;99.90
26655;DHT22;14278;50.784;4.630;2023-05-28T02:45:41;13.50;99.90
26655;DHT22;14278;50.784;4.630;2023-05-28T02:48:07;13.40;99.90
26655;DHT22;14278;50.784;4.630;2023-05-28T02:54:14;12.90;99.90
26655;DHT22;14278;50.784;4.630;2023-05-28T02:56:39;12.80;99.90
26655;DHT22;14278;50.784;4.630;2023-05-28T02:59:08;12.70;99.90
26655;DHT22;14278;50.784;4.630;2023-05-28T03:01:34;12.90;99.90
26655;DHT22;14278;50.784;4.630;2023-05-28T03:04:00;12.90;99.90
26655;DHT22;14278;50.784;4.630;2023-05-28T03:06:41;12.90;99.90
26655;DHT22;14278;50.784;4.630;2023-05-28T03:09:07;12.80;99.90
26655;DHT22;14278;50.784;4.630;2023-05-28T03:11:32;13.10;99.90
26655;DHT22;14278;50.784;4.630;2023-05-28T03:14:00;13.30;99.90
26655;DHT22;14278;50.784;4.630;2023-05-28T03:16:25;13.20;99.90
26655;DHT22;14278;50.784;4.630;2023-05-28T03:18:52;13.20;99.90
26655;DHT22;14278;50.784;4.630;2023-05-28T03:21:17;13.10;99.90
26655;DHT22;14278;50.784;4.630;2023-05-28T03:23:52;12.80;99.90
26655;DHT22;14278;50.784;4.630;2023-05-28T03:26:18;12.50;99.90
26655;DHT22;14278;50.784;4.630;2023-05-28T03:28:44;12.20;99.90
26655;DHT22;14278;50.784;4.630;2023-05-28T03:31:11;12.10;99.90
26655;DHT22;14278;50.784;4.630;2023-05-28T03:33:38;12.00;99.90
26655;DHT22;14278;50.784;4.630;2023-05-28T03:36:04;12.00;99.90
26655;DHT22;14278;50.784;4.630;2023-05-28T03:38:32;12.10;99.90
26655;DHT22;14278;50.784;4.630;2023-05-28T03:40:58;12.10;99.90
26655;DHT22;14278;50.784;4.630;2023-05-28T03:43:24;12.10;99.90
26655;DHT22;14278;50.784;4.630;2023-05-28T03:45:50;12.40;99.90
26655;DHT22;14278;50.784;4.630;2023-05-28T03:48:16;12.70;99.90
26655;DHT22;14278;50.784;4.630;2023-05-28T03:50:41;12.90;99.90
26655;DHT22;14278;50.784;4.630;2023-05-28T03:53:07;13.10;99.90
26655;DHT22;14278;50.784;4.630;2023-05-28T03:55:33;13.20;99.90
26655;DHT22;14278;50.784;4.630;2023-05-28T03:58:01;12.90;99.90
26655;DHT22;14278;50.784;4.630;2023-05-28T04:00:27;12.60;99.90
26655;DHT22;14278;50.784;4.630;2023-05-28T04:02:53;12.40;99.90
26655;DHT22;14278;50.784;4.630;2023-05-28T04:05:19;12.40;99.90
26655;DHT22;14278;50.784;4.630;2023-05-28T04:07:45;12.40;99.90
26655;DHT22;14278;50.784;4.630;2023-05-28T04:10:11;12.40;99.90
26655;DHT22;14278;50.784;4.630;2023-05-28T04:12:37;12.50;99.90
26655;DHT22;14278;50.784;4.630;2023-05-28T04:15:04;12.70;99.90
26655;DHT22;14278;50.784;4.630;2023-05-28T04:17:35;12.70;99.90
26655;DHT22;14278;50.784;4.630;2023-05-28T04:20:02;12.70;99.90
26655;DHT22;14278;50.784;4.630;2023-05-28T04:22:31;13.10;99.90
26655;DHT22;14278;50.784;4.630;2023-05-28T04:24:57;13.20;99.90
26655;DHT22;14278;50.784;4.630;2023-05-28T04:27:22;13.10;99.90
26655;DHT22;14278;50.784;4.630;2023-05-28T04:29:49;13.20;99.90
26655;DHT22;14278;50.784;4.630;2023-05-28T04:32:15;13.50;99.90
26655;DHT22;14278;50.784;4.630;2023-05-28T04:34:45;14.20;99.90
26655;DHT22;14278;50.784;4.630;2023-05-28T04:37:10;14.50;99.90
26655;DHT22;14278;50.784;4.630;2023-05-28T04:39:36;15.20;99.90
26655;DHT22;14278;50.784;4.630;2023-05-28T04:42:03;15.70;99.90
26655;DHT22;14278;50.784;4.630;2023-05-28T04:44:31;16.50;99.90
26655;DHT22;14278;50.784;4.630;2023-05-28T04:47:00;17.30;99.90
26655;DHT22;14278;50.784;4.630;2023-05-28T04:49:26;17.20;99.90
26655;DHT22;14278;50.784;4.630;2023-05-28T04:51:52;17.40;99.90
26655;DHT22;14278;50.784;4.630;2023-05-28T04:54:17;17.70;99.90
26655;DHT22;14278;50.784;4.630;2023-05-28T04:56:44;18.10;99.90
26655;DHT22;14278;50.784;4.630;2023-05-28T04:59:11;18.20;99.90
26655;DHT22;14278;50.784;4.630;2023-05-28T05:01:37;18.40;99.90
26655;DHT22;14278;50.784;4.630;2023-05-28T05:04:05;18.90;99.90
26655;DHT22;14278;50.784;4.630;2023-05-28T05:06:31;18.80;99.90
26655;DHT22;14278;50.784;4.630;2023-05-28T05:08:57;18.30;99.90
26655;DHT22;14278;50.784;4.630;2023-05-28T05:11:23;17.90;99.90
26655;DHT22;14278;50.784;4.630;2023-05-28T05:13:48;17.80;99.90
26655;DHT22;14278;50.784;4.630;2023-05-28T05:16:14;17.50;99.90
26655;DHT22;14278;50.784;4.630;2023-05-28T05:18:40;17.20;99.90
26655;DHT22;14278;50.784;4.630;2023-05-28T05:21:06;17.10;99.90
26655;DHT22;14278;50.784;4.630;2023-05-28T05:23:35;17.00;99.90
26655;DHT22;14278;50.784;4.630;2023-05-28T05:26:01;17.00;99.90
26655;DHT22;14278;50.784;4.630;2023-05-28T05:28:27;17.00;99.90
26655;DHT22;14278;50.784;4.630;2023-05-28T05:30:52;17.00;99.90
26655;DHT22;14278;50.784;4.630;2023-05-28T05:33:19;17.70;99.90
26655;DHT22;14278;50.784;4.630;2023-05-28T05:35:44;18.00;99.90
26655;DHT22;14278;50.784;4.630;2023-05-28T05:38:10;18.50;99.90
26655;DHT22;14278;50.784;4.630;2023-05-28T05:40:36;18.90;99.90
26655;DHT22;14278;50.784;4.630;2023-05-28T05:43:02;19.10;99.90
26655;DHT22;14278;50.784;4.630;2023-05-28T05:45:28;18.70;99.90
26655;DHT22;14278;50.784;4.630;2023-05-28T05:47:54;18.30;99.90
26655;DHT22;14278;50.784;4.630;2023-05-28T05:50:23;18.30;99.90
26655;DHT22;14278;50.784;4.630;2023-05-28T05:52:49;18.30;99.90
26655;DHT22;14278;50.784;4.630;2023-05-28T05:55:17;18.10;99.90
26655;DHT22;14278;50.784;4.630;2023-05-28T05:57:42;18.00;99.90
26655;DHT22;14278;50.784;4.630;2023-05-28T06:00:10;18.10;99.90
26655;DHT22;14278;50.784;4.630;2023-05-28T06:02:38;17.90;99.90
26655;DHT22;14278;50.784;4.630;2023-05-28T06:05:07;17.20;99.90
26655;DHT22;14278;50.784;4.630;2023-05-28T06:07:34;17.30;99.90
26655;DHT22;14278;50.784;4.630;2023-05-28T06:10:00;17.30;99.90
26655;DHT22;14278;50.784;4.630;2023-05-28T06:12:27;17.60;99.90
26655;DHT22;14278;50.784;4.630;2023-05-28T06:14:55;17.30;99.90
26655;DHT22;14278;50.784;4.630;2023-05-28T06:17:23;17.30;99.90
26655;DHT22;14278;50.784;4.630;2023-05-28T06:19:50;17.50;99.90
26655;DHT22;14278;50.784;4.630;2023-05-28T06:22:18;17.40;99.90
26655;DHT22;14278;50.784;4.630;2023-05-28T06:24:44;17.40;99.90
26655;DHT22;14278;50.784;4.630;2023-05-28T06:27:11;17.70;99.90
26655;DHT22;14278;50.784;4.630;2023-05-28T06:29:37;17.80;99.90
26655;DHT22;14278;50.784;4.630;2023-05-28T06:32:03;18.20;99.90
26655;DHT22;14278;50.784;4.630;2023-05-28T06:34:32;18.30;99.90
26655;DHT22;14278;50.784;4.630;2023-05-28T06:36:59;18.90;99.90
26655;DHT22;14278;50.784;4.630;2023-05-28T06:39:25;19.20;99.90
26655;DHT22;14278;50.784;4.630;2023-05-28T06:41:51;19.90;99.90
26655;DHT22;14278;50.784;4.630;2023-05-28T06:44:16;20.70;99.90
26655;DHT22;14278;50.784;4.630;2023-05-28T06:46:44;22.10;99.90
26655;DHT22;14278;50.784;4.630;2023-05-28T06:49:12;24.90;99.90
26655;DHT22;14278;50.784;4.630;2023-05-28T06:51:40;27.30;99.90
26655;DHT22;14278;50.784;4.630;2023-05-28T06:54:06;30.10;99.90
26655;DHT22;14278;50.784;4.630;2023-05-28T06:56:32;28.20;99.90
26655;DHT22;14278;50.784;4.630;2023-05-28T06:58:58;31.30;99.90
26655;DHT22;14278;50.784;4.630;2023-05-28T07:01:24;32.40;99.90
26655;DHT22;14278;50.784;4.630;2023-05-28T07:03:49;34.50;97.60
26655;DHT22;14278;50.784;4.630;2023-05-28T07:06:15;36.20;93.40
26655;DHT22;14278;50.784;4.630;2023-05-28T07:08:41;36.30;90.30
26655;DHT22;14278;50.784;4.630;2023-05-28T07:11:10;37.40;86.80
26655;DHT22;14278;50.784;4.630;2023-05-28T07:13:38;38.10;83.80
26655;DHT22;14278;50.784;4.630;2023-05-28T07:16:04;37.40;81.00
26655;DHT22;14278;50.784;4.630;2023-05-28T07:18:29;38.40;78.90
26655;DHT22;14278;50.784;4.630;2023-05-28T07:20:56;38.20;75.40
26655;DHT22;14278;50.784;4.630;2023-05-28T07:23:22;37.10;76.50
26655;DHT22;14278;50.784;4.630;2023-05-28T07:25:48;38.80;74.90
26655;DHT22;14278;50.784;4.630;2023-05-28T07:28:13;38.20;73.10
26655;DHT22;14278;50.784;4.630;2023-05-28T07:30:41;36.60;75.70
26655;DHT22;14278;50.784;4.630;2023-05-28T07:33:07;37.80;75.10
26655;DHT22;14278;50.784;4.630;2023-05-28T07:35:33;37.70;71.60
26655;DHT22;14278;50.784;4.630;2023-05-28T07:38:01;39.00;71.80
26655;DHT22;14278;50.784;4.630;2023-05-28T07:40:27;39.60;69.80
26655;DHT22;14278;50.784;4.630;2023-05-28T07:42:52;39.30;68.80
26655;DHT22;14278;50.784;4.630;2023-05-28T07:45:18;38.70;68.20
26655;DHT22;14278;50.784;4.630;2023-05-28T07:47:45;39.00;69.30
26655;DHT22;14278;50.784;4.630;2023-05-28T07:50:11;38.40;69.50
26655;DHT22;14278;50.784;4.630;2023-05-28T07:52:37;36.70;70.90
26655;DHT22;14278;50.784;4.630;2023-05-28T07:55:06;37.80;71.20
26655;DHT22;14278;50.784;4.630;2023-05-28T07:57:34;38.70;70.00
26655;DHT22;14278;50.784;4.630;2023-05-28T08:00:00;35.60;69.90
26655;DHT22;14278;50.784;4.630;2023-05-28T08:02:32;34.80;71.80
26655;DHT22;14278;50.784;4.630;2023-05-28T08:04:58;36.00;72.30
26655;DHT22;14278;50.784;4.630;2023-05-28T08:07:27;31.50;79.60
26655;DHT22;14278;50.784;4.630;2023-05-28T08:09:53;33.50;77.50
26655;DHT22;14278;50.784;4.630;2023-05-28T08:12:19;34.40;75.00
26655;DHT22;14278;50.784;4.630;2023-05-28T08:14:45;35.50;76.60
26655;DHT22;14278;50.784;4.630;2023-05-28T08:17:11;36.40;73.50
26655;DHT22;14278;50.784;4.630;2023-05-28T08:19:37;37.10;71.30
26655;DHT22;14278;50.784;4.630;2023-05-28T08:22:04;36.70;71.20
26655;DHT22;14278;50.784;4.630;2023-05-28T08:24:30;31.30;75.20
26655;DHT22;14278;50.784;4.630;2023-05-28T08:26:56;31.10;81.90
26655;DHT22;14278;50.784;4.630;2023-05-28T08:29:21;32.50;82.00
26655;DHT22;14278;50.784;4.630;2023-05-28T08:31:47;33.90;79.00
26655;DHT22;14278;50.784;4.630;2023-05-28T08:34:13;34.60;77.40
26655;DHT22;14278;50.784;4.630;2023-05-28T08:36:39;35.20;75.50
26655;DHT22;14278;50.784;4.630;2023-05-28T08:39:06;33.60;71.40
26655;DHT22;14278;50.784;4.630;2023-05-28T08:41:32;32.60;74.50
26655;DHT22;14278;50.784;4.630;2023-05-28T08:43:57;30.30;80.50
26655;DHT22;14278;50.784;4.630;2023-05-28T08:46:23;32.50;75.80
26655;DHT22;14278;50.784;4.630;2023-05-28T08:48:50;32.50;76.90
26655;DHT22;14278;50.784;4.630;2023-05-28T08:51:17;31.00;75.00
26655;DHT22;14278;50.784;4.630;2023-05-28T08:53:46;28.50;82.00
26655;DHT22;14278;50.784;4.630;2023-05-28T08:56:13;29.10;80.30
26655;DHT22;14278;50.784;4.630;2023-05-28T08:58:39;27.80;83.10
26655;DHT22;14278;50.784;4.630;2023-05-28T09:01:07;27.20;86.50
26655;DHT22;14278;50.784;4.630;2023-05-28T09:03:34;28.00;84.10
26655;DHT22;14278;50.784;4.630;2023-05-28T09:06:00;29.30;81.50
26655;DHT22;14278;50.784;4.630;2023-05-28T09:08:26;29.50;82.70
26655;DHT22;14278;50.784;4.630;2023-05-28T09:10:51;29.50;82.00
26655;DHT22;14278;50.784;4.630;2023-05-28T09:13:20;27.60;82.80
26655;DHT22;14278;50.784;4.630;2023-05-28T09:15:52;26.30;87.30
26655;DHT22;14278;50.784;4.630;2023-05-28T09:18:21;28.50;87.20
26655;DHT22;14278;50.784;4.630;2023-05-28T09:20:51;25.60;87.20
26655;DHT22;14278;50.784;4.630;2023-05-28T09:23:18;27.60;86.60
26655;DHT22;14278;50.784;4.630;2023-05-28T09:25:44;27.10;86.00
26655;DHT22;14278;50.784;4.630;2023-05-28T09:28:11;26.00;88.60
26655;DHT22;14278;50.784;4.630;2023-05-28T09:30:40;26.80;88.70
26655;DHT22;14278;50.784;4.630;2023-05-28T09:33:07;26.80;90.20
26655;DHT22;14278;50.784;4.630;2023-05-28T09:35:35;26.60;88.40
26655;DHT22;14278;50.784;4.630;2023-05-28T09:38:06;26.80;90.20
26655;DHT22;14278;50.784;4.630;2023-05-28T09:40:43;26.30;91.00
26655;DHT22;14278;50.784;4.630;2023-05-28T09:43:10;27.80;88.10
26655;DHT22;14278;50.784;4.630;2023-05-28T09:45:36;27.70;85.80
26655;DHT22;14278;50.784;4.630;2023-05-28T09:48:03;27.50;87.90
26655;DHT22;14278;50.784;4.630;2023-05-28T09:50:29;26.60;90.60
26655;DHT22;14278;50.784;4.630;2023-05-28T09:52:57;26.10;92.20
26655;DHT22;14278;50.784;4.630;2023-05-28T09:55:25;25.50;91.00
26655;DHT22;14278;50.784;4.630;2023-05-28T09:58:01;24.40;92.50
26655;DHT22;14278;50.784;4.630;2023-05-28T10:00:38;25.50;91.50
26655;DHT22;14278;50.784;4.630;2023-05-28T10:05:48;29.70;90.10
26655;DHT22;14278;50.784;4.630;2023-05-28T10:08:16;27.80;88.90
26655;DHT22;14278;50.784;4.630;2023-05-28T10:10:46;27.90;86.60
26655;DHT22;14278;50.784;4.630;2023-05-28T10:13:15;27.20;87.20
26655;DHT22;14278;50.784;4.630;2023-05-28T10:15:42;28.00;88.80
26655;DHT22;14278;50.784;4.630;2023-05-28T10:18:08;29.00;86.70
26655;DHT22;14278;50.784;4.630;2023-05-28T10:20:34;29.70;86.20
26655;DHT22;14278;50.784;4.630;2023-05-28T10:23:00;28.00;87.10
26655;DHT22;14278;50.784;4.630;2023-05-28T10:25:27;29.50;85.30
26655;DHT22;14278;50.784;4.630;2023-05-28T10:27:58;30.20;82.80
26655;DHT22;14278;50.784;4.630;2023-05-28T10:30:36;29.80;85.60
26655;DHT22;14278;50.784;4.630;2023-05-28T10:33:11;31.90;79.70
26655;DHT22;14278;50.784;4.630;2023-05-28T10:35:53;33.10;79.10
26655;DHT22;14278;50.784;4.630;2023-05-28T10:38:19;30.30;87.10
26655;DHT22;14278;50.784;4.630;2023-05-28T10:40:45;29.30;83.30
26655;DHT22;14278;50.784;4.630;2023-05-28T10:43:39;31.70;80.80
26655;DHT22;14278;50.784;4.630;2023-05-28T10:46:10;32.80;79.10
26655;DHT22;14278;50.784;4.630;2023-05-28T10:48:40;35.30;77.90
26655;DHT22;14278;50.784;4.630;2023-05-28T10:51:06;35.00;77.20
26655;DHT22;14278;50.784;4.630;2023-05-28T10:53:32;35.40;75.80
26655;DHT22;14278;50.784;4.630;2023-05-28T10:55:58;34.10;75.20
26655;DHT22;14278;50.784;4.630;2023-05-28T10:58:26;34.40;74.50
26655;DHT22;14278;50.784;4.630;2023-05-28T11:00:59;33.70;73.40
26655;DHT22;14278;50.784;4.630;2023-05-28T11:03:51;31.20;75.40
26655;DHT22;14278;50.784;4.630;2023-05-28T11:06:17;29.50;80.20
26655;DHT22;14278;50.784;4.630;2023-05-28T11:08:49;31.70;77.90
26655;DHT22;14278;50.784;4.630;2023-05-28T11:11:18;30.70;76.90
26655;DHT22;14278;50.784;4.630;2023-05-28T11:13:46;30.50;79.70
26655;DHT22;14278;50.784;4.630;2023-05-28T11:16:15;30.80;78.10
26655;DHT22;14278;50.784;4.630;2023-05-28T11:19:02;27.90;82.30
26655;DHT22;14278;50.784;4.630;2023-05-28T11:21:29;27.30;86.60
26655;DHT22;14278;50.784;4.630;2023-05-28T11:24:01;27.30;84.20
26655;DHT22;14278;50.784;4.630;2023-05-28T11:26:27;29.10;83.70
26655;DHT22;14278;50.784;4.630;2023-05-28T11:28:53;29.20;83.50
26655;DHT22;14278;50.784;4.630;2023-05-28T11:31:19;28.90;81.00
26655;DHT22;14278;50.784;4.630;2023-05-28T11:33:49;28.70;83.80
26655;DHT22;14278;50.784;4.630;2023-05-28T11:36:15;27.50;83.20
26655;DHT22;14278;50.784;4.630;2023-05-28T11:38:41;29.70;83.70
26655;DHT22;14278;50.784;4.630;2023-05-28T11:41:07;31.90;78.50
26655;DHT22;14278;50.784;4.630;2023-05-28T11:43:32;32.20;79.20
26655;DHT22;14278;50.784;4.630;2023-05-28T11:45:59;32.60;78.50
26655;DHT22;14278;50.784;4.630;2023-05-28T11:48:28;31.60;74.00
26655;DHT22;14278;50.784;4.630;2023-05-28T11:50:59;30.90;75.00
26655;DHT22;14278;50.784;4.630;2023-05-28T11:53:40;30.00;77.00
26655;DHT22;14278;50.784;4.630;2023-05-28T11:56:08;29.00;78.00
26655;DHT22;14278;50.784;4.630;2023-05-28T11:58:34;29.10;81.60
26655;DHT22;14278;50.784;4.630;2023-05-28T12:01:03;29.40;80.00
26655;DHT22;14278;50.784;4.630;2023-05-28T12:03:30;28.10;79.10
26655;DHT22;14278;50.784;4.630;2023-05-28T12:05:56;28.00;87.70
26655;DHT22;14278;50.784;4.630;2023-05-28T12:08:22;27.50;86.40
26655;DHT22;14278;50.784;4.630;2023-05-28T12:10:48;27.50;82.70
26655;DHT22;14278;50.784;4.630;2023-05-28T12:13:14;27.70;82.60
26655;DHT22;14278;50.784;4.630;2023-05-28T12:15:41;27.80;83.10
26655;DHT22;14278;50.784;4.630;2023-05-28T12:18:07;28.00;86.00
26655;DHT22;14278;50.784;4.630;2023-05-28T12:20:40;27.40;84.80
26655;DHT22;14278;50.784;4.630;2023-05-28T12:23:08;27.50;81.50
26655;DHT22;14278;50.784;4.630;2023-05-28T12:25:44;27.30;83.00
26655;DHT22;14278;50.784;4.630;2023-05-28T12:28:11;27.00;82.80
26655;DHT22;14278;50.784;4.630;2023-05-28T12:30:38;27.10;85.50
26655;DHT22;14278;50.784;4.630;2023-05-28T12:33:04;27.50;84.60
26655;DHT22;14278;50.784;4.630;2023-05-28T12:35:30;26.90;83.50
26655;DHT22;14278;50.784;4.630;2023-05-28T12:37:56;26.40;85.20
26655;DHT22;14278;50.784;4.630;2023-05-28T12:40:22;26.70;85.80
26655;DHT22;14278;50.784;4.630;2023-05-28T12:42:48;27.10;87.10
26655;DHT22;14278;50.784;4.630;2023-05-28T12:45:14;26.40;88.10
26655;DHT22;14278;50.784;4.630;2023-05-28T12:47:40;26.50;84.10
26655;DHT22;14278;50.784;4.630;2023-05-28T12:50:05;26.30;87.30
26655;DHT22;14278;50.784;4.630;2023-05-28T12:52:32;25.80;86.80
26655;DHT22;14278;50.784;4.630;2023-05-28T12:55:00;25.70;88.20
26655;DHT22;14278;50.784;4.630;2023-05-28T12:57:26;26.30;88.70
26655;DHT22;14278;50.784;4.630;2023-05-28T12:59:52;26.50;86.90
26655;DHT22;14278;50.784;4.630;2023-05-28T13:02:18;26.60;86.20
26655;DHT22;14278;50.784;4.630;2023-05-28T13:04:44;26.10;85.70
26655;DHT22;14278;50.784;4.630;2023-05-28T13:07:10;26.20;87.20
26655;DHT22;14278;50.784;4.630;2023-05-28T13:09:37;25.60;88.10
26655;DHT22;14278;50.784;4.630;2023-05-28T13:12:03;25.70;87.50
26655;DHT22;14278;50.784;4.630;2023-05-28T13:14:29;25.50;89.90
26655;DHT22;14278;50.784;4.630;2023-05-28T13:16:58;26.00;89.80
26655;DHT22;14278;50.784;4.630;2023-05-28T13:19:26;26.10;87.90
26655;DHT22;14278;50.784;4.630;2023-05-28T13:21:52;26.40;88.40
26655;DHT22;14278;50.784;4.630;2023-05-28T13:24:18;26.20;89.70
26655;DHT22;14278;50.784;4.630;2023-05-28T13:26:44;25.20;88.80
26655;DHT22;14278;50.784;4.630;2023-05-28T13:29:10;25.10;90.70
26655;DHT22;14278;50.784;4.630;2023-05-28T13:31:36;25.30;90.70
26655;DHT22;14278;50.784;4.630;2023-05-28T13:34:02;25.90;86.90
26655;DHT22;14278;50.784;4.630;2023-05-28T13:36:30;25.50;91.10
26655;DHT22;14278;50.784;4.630;2023-05-28T13:38:56;25.70;88.20
26655;DHT22;14278;50.784;4.630;2023-05-28T13:41:23;25.80;89.30
26655;DHT22;14278;50.784;4.630;2023-05-28T13:43:51;25.90;89.40
26655;DHT22;14278;50.784;4.630;2023-05-28T13:46:19;26.00;90.30
26655;DHT22;14278;50.784;4.630;2023-05-28T13:48:45;26.00;90.20
26655;DHT22;14278;50.784;4.630;2023-05-28T13:51:11;26.30;88.20
26655;DHT22;14278;50.784;4.630;2023-05-28T13:53:38;26.00;88.30
26655;DHT22;14278;50.784;4.630;2023-05-28T13:56:04;25.60;89.20
26655;DHT22;14278;50.784;4.630;2023-05-28T13:58:30;25.30;90.00
26655;DHT22;14278;50.784;4.630;2023-05-28T14:00:56;25.90;91.00
26655;DHT22;14278;50.784;4.630;2023-05-28T14:03:22;25.90;89.70
26655;DHT22;14278;50.784;4.630;2023-05-28T14:05:48;26.30;89.40
26655;DHT22;14278;50.784;4.630;2023-05-28T14:08:14;26.60;90.10
26655;DHT22;14278;50.784;4.630;2023-05-28T14:10:40;26.80;90.90
26655;DHT22;14278;50.784;4.630;2023-05-28T14:13:06;27.20;91.60
26655;DHT22;14278;50.784;4.630;2023-05-28T14:15:31;27.30;88.40
26655;DHT22;14278;50.784;4.630;2023-05-28T14:17:58;26.80;89.80
26655;DHT22;14278;50.784;4.630;2023-05-28T14:20:24;26.70;91.70
26655;DHT22;14278;50.784;4.630;2023-05-28T14:22:50;26.80;90.30
26655;DHT22;14278;50.784;4.630;2023-05-28T14:25:16;26.60;90.10
26655;DHT22;14278;50.784;4.630;2023-05-28T14:27:42;25.60;90.00
26655;DHT22;14278;50.784;4.630;2023-05-28T14:30:08;24.80;90.00
26655;DHT22;14278;50.784;4.630;2023-05-28T14:32:34;25.30;90.90
26655;DHT22;14278;50.784;4.630;2023-05-28T14:35:00;25.80;89.30
26655;DHT22;14278;50.784;4.630;2023-05-28T14:37:27;26.30;90.10
26655;DHT22;14278;50.784;4.630;2023-05-28T14:39:53;26.20;91.20
26655;DHT22;14278;50.784;4.630;2023-05-28T14:42:19;26.60;90.00
26655;DHT22;14278;50.784;4.630;2023-05-28T14:44:45;26.90;90.10
26655;DHT22;14278;50.784;4.630;2023-05-28T14:47:11;25.90;90.30
26655;DHT22;14278;50.784;4.630;2023-05-28T14:49:36;26.20;91.80
26655;DHT22;14278;50.784;4.630;2023-05-28T14:52:25;26.10;89.30
26655;DHT22;14278;50.784;4.630;2023-05-28T14:54:52;26.40;90.50
26655;DHT22;14278;50.784;4.630;2023-05-28T14:57:19;26.90;92.00
26655;DHT22;14278;50.784;4.630;2023-05-28T14:59:45;26.80;91.20
26655;DHT22;14278;50.784;4.630;2023-05-28T15:02:11;26.50;90.70
26655;DHT22;14278;50.784;4.630;2023-05-28T15:04:37;26.40;90.90
26655;DHT22;14278;50.784;4.630;2023-05-28T15:07:03;25.90;91.60
26655;DHT22;14278;50.784;4.630;2023-05-28T15:09:29;25.60;90.70
26655;DHT22;14278;50.784;4.630;2023-05-28T15:11:55;26.00;90.50
26655;DHT22;14278;50.784;4.630;2023-05-28T15:14:21;25.20;90.50
26655;DHT22;14278;50.784;4.630;2023-05-28T15:16:47;25.30;90.80
26655;DHT22;14278;50.784;4.630;2023-05-28T15:19:13;25.70;90.90
26655;DHT22;14278;50.784;4.630;2023-05-28T15:21:40;25.30;90.70
26655;DHT22;14278;50.784;4.630;2023-05-28T15:24:06;25.80;90.50
26655;DHT22;14278;50.784;4.630;2023-05-28T15:26:32;25.00;90.50
26655;DHT22;14278;50.784;4.630;2023-05-28T15:28:58;25.00;91.30
26655;DHT22;14278;50.784;4.630;2023-05-28T15:31:25;25.20;91.00
26655;DHT22;14278;50.784;4.630;2023-05-28T15:33:51;25.50;90.60
26655;DHT22;14278;50.784;4.630;2023-05-28T15:36:18;25.80;90.70
26655;DHT22;14278;50.784;4.630;2023-05-28T15:38:44;26.20;90.20
26655;DHT22;14278;50.784;4.630;2023-05-28T15:41:10;25.90;92.60
26655;DHT22;14278;50.784;4.630;2023-05-28T15:43:37;25.90;89.80